sensor_id;sensor_type;location;lat;lon;timestamp;P1;durP1;ratioP1;P2;durP2;ratioP2
2602;SDS011;1311;47.966;7.958;2024-01-15T00:00:59;22.10;;;12.03;;
2602;SDS011;1311;47.966;7.958;2024-01-15T00:03:26;26.13;;;11.30;;
2602;SDS011;1311;47.966;7.958;2024-01-15T00:05:52;28.73;;;11.67;;
2602;SDS011;1311;47.966;7.958;2024-01-15T00:08:19;27.63;;;12.90;;
2602;SDS011;1311;47.966;7.958;2024-01-15T00:10:46;26.70;;;11.70;;
2602;SDS011;1311;47.966;7.958;2024-01-15T00:13:14;25.17;;;11.63;;
2602;SDS011;1311;47.966;7.958;2024-01-15T00:15:41;24.50;;;11.70;;
2602;SDS011;1311;47.966;7.958;2024-01-15T00:18:08;26.60;;;12.33;;
2602;SDS011;1311;47.966;7.958;2024-01-15T00:20:35;28.60;;;13.20;;
2602;SDS011;1311;47.966;7.958;2024-01-15T00:23:02;27.07;;;12.80;;
2602;SDS011;1311;47.966;7.958;2024-01-15T00:25:29;31.20;;;12.73;;
2602;SDS011;1311;47.966;7.958;2024-01-15T00:27:55;24.53;;;11.37;;
2602;SDS011;1311;47.966;7.958;2024-01-15T00:30:23;22.40;;;11.97;;
2602;SDS011;1311;47.966;7.958;2024-01-15T00:32:50;26.93;;;13.60;;
2602;SDS011;1311;47.966;7.958;2024-01-15T00:35:17;26.20;;;13.37;;
2602;SDS011;1311;47.966;7.958;2024-01-15T00:37:43;30.60;;;12.57;;
2602;SDS011;1311;47.966;7.958;2024-01-15T00:40:10;29.23;;;13.53;;
2602;SDS011;1311;47.966;7.958;2024-01-15T00:42:37;31.37;;;13.13;;
2602;SDS011;1311;47.966;7.958;2024-01-15T00:45:04;28.97;;;13.00;;
2602;SDS011;1311;47.966;7.958;2024-01-15T00:47:34;25.33;;;11.83;;
2602;SDS011;1311;47.966;7.958;2024-01-15T00:50:00;27.13;;;12.23;;
2602;SDS011;1311;47.966;7.958;2024-01-15T00:52:28;28.53;;;11.70;;
2602;SDS011;1311;47.966;7.958;2024-01-15T00:54:54;23.10;;;11.00;;
2602;SDS011;1311;47.966;7.958;2024-01-15T00:57:21;27.77;;;11.43;;
2602;SDS011;1311;47.966;7.958;2024-01-15T00:59:48;29.43;;;12.63;;
2602;SDS011;1311;47.966;7.958;2024-01-15T01:02:14;31.33;;;13.77;;
2602;SDS011;1311;47.966;7.958;2024-01-15T01:04:42;33.37;;;12.90;;
2602;SDS011;1311;47.966;7.958;2024-01-15T01:07:09;26.10;;;12.17;;
2602;SDS011;1311;47.966;7.958;2024-01-15T01:09:36;25.40;;;13.13;;
2602;SDS011;1311;47.966;7.958;2024-01-15T01:12:03;26.67;;;10.10;;
2602;SDS011;1311;47.966;7.958;2024-01-15T01:14:31;29.40;;;13.03;;
2602;SDS011;1311;47.966;7.958;2024-01-15T01:16:58;27.20;;;12.57;;
2602;SDS011;1311;47.966;7.958;2024-01-15T01:19:25;28.80;;;11.63;;
2602;SDS011;1311;47.966;7.958;2024-01-15T01:21:53;31.77;;;11.43;;
2602;SDS011;1311;47.966;7.958;2024-01-15T01:24:19;30.20;;;12.70;;
2602;SDS011;1311;47.966;7.958;2024-01-15T01:26:46;26.83;;;11.70;;
2602;SDS011;1311;47.966;7.958;2024-01-15T01:29:14;26.90;;;12.57;;
2602;SDS011;1311;47.966;7.958;2024-01-15T01:31:42;27.00;;;11.87;;
2602;SDS011;1311;47.966;7.958;2024-01-15T01:34:10;25.47;;;11.00;;
2602;SDS011;1311;47.966;7.958;2024-01-15T01:36:37;25.70;;;12.53;;
2602;SDS011;1311;47.966;7.958;2024-01-15T01:39:05;28.43;;;12.80;;
2602;SDS011;1311;47.966;7.958;2024-01-15T01:41:32;31.43;;;13.00;;
2602;SDS011;1311;47.966;7.958;2024-01-15T01:43:59;30.73;;;11.80;;
2602;SDS011;1311;47.966;7.958;2024-01-15T01:46:27;31.40;;;14.07;;
2602;SDS011;1311;47.966;7.958;2024-01-15T01:48:54;24.93;;;12.47;;
2602;SDS011;1311;47.966;7.958;2024-01-15T01:51:22;24.63;;;12.20;;
2602;SDS011;1311;47.966;7.958;2024-01-15T01:53:50;30.70;;;12.30;;
2602;SDS011;1311;47.966;7.958;2024-01-15T01:56:19;23.43;;;11.60;;
2602;SDS011;1311;47.966;7.958;2024-01-15T01:58:45;22.83;;;11.07;;
2602;SDS011;1311;47.966;7.958;2024-01-15T02:01:13;26.63;;;11.47;;
2602;SDS011;1311;47.966;7.958;2024-01-15T02:03:42;18.20;;;10.13;;
2602;SDS011;1311;47.966;7.958;2024-01-15T02:06:09;26.83;;;11.87;;
2602;SDS011;1311;47.966;7.958;2024-01-15T02:08:36;21.43;;;11.60;;
2602;SDS011;1311;47.966;7.958;2024-01-15T02:11:03;26.47;;;12.00;;
2602;SDS011;1311;47.966;7.958;2024-01-15T02:13:31;28.37;;;12.20;;
2602;SDS011;1311;47.966;7.958;2024-01-15T02:15:58;23.57;;;10.77;;
2602;SDS011;1311;47.966;7.958;2024-01-15T02:18:25;18.50;;;10.07;;
2602;SDS011;1311;47.966;7.958;2024-01-15T02:20:51;23.90;;;11.80;;
2602;SDS011;1311;47.966;7.958;2024-01-15T02:23:19;26.90;;;12.23;;
2602;SDS011;1311;47.966;7.958;2024-01-15T02:25:46;28.07;;;13.00;;
2602;SDS011;1311;47.966;7.958;2024-01-15T02:28:14;29.77;;;11.47;;
2602;SDS011;1311;47.966;7.958;2024-01-15T02:30:42;27.70;;;10.90;;
2602;SDS011;1311;47.966;7.958;2024-01-15T02:33:10;31.37;;;12.90;;
2602;SDS011;1311;47.966;7.958;2024-01-15T02:35:37;26.43;;;10.43;;
2602;SDS011;1311;47.966;7.958;2024-01-15T02:38:04;25.50;;;11.27;;
2602;SDS011;1311;47.966;7.958;2024-01-15T02:40:32;30.27;;;12.07;;
2602;SDS011;1311;47.966;7.958;2024-01-15T02:42:59;24.40;;;11.73;;
2602;SDS011;1311;47.966;7.958;2024-01-15T02:45:26;27.40;;;11.90;;
2602;SDS011;1311;47.966;7.958;2024-01-15T02:47:53;24.70;;;11.47;;
2602;SDS011;1311;47.966;7.958;2024-01-15T02:50:20;25.57;;;10.40;;
2602;SDS011;1311;47.966;7.958;2024-01-15T02:52:47;28.50;;;11.77;;
2602;SDS011;1311;47.966;7.958;2024-01-15T02:55:13;26.70;;;11.67;;
2602;SDS011;1311;47.966;7.958;2024-01-15T02:57:41;26.83;;;11.23;;
2602;SDS011;1311;47.966;7.958;2024-01-15T03:00:09;24.67;;;11.17;;
2602;SDS011;1311;47.966;7.958;2024-01-15T03:02:36;26.87;;;11.07;;
2602;SDS011;1311;47.966;7.958;2024-01-15T03:05:04;25.87;;;11.80;;
2602;SDS011;1311;47.966;7.958;2024-01-15T03:07:31;24.83;;;11.77;;
2602;SDS011;1311;47.966;7.958;2024-01-15T03:09:58;27.53;;;10.70;;
2602;SDS011;1311;47.966;7.958;2024-01-15T03:12:25;24.40;;;12.10;;
2602;SDS011;1311;47.966;7.958;2024-01-15T03:14:53;26.53;;;11.30;;
2602;SDS011;1311;47.966;7.958;2024-01-15T03:17:19;24.90;;;12.83;;
2602;SDS011;1311;47.966;7.958;2024-01-15T03:19:46;25.40;;;13.07;;
2602;SDS011;1311;47.966;7.958;2024-01-15T03:22:14;31.60;;;14.50;;
2602;SDS011;1311;47.966;7.958;2024-01-15T03:24:41;28.40;;;11.87;;
2602;SDS011;1311;47.966;7.958;2024-01-15T03:27:08;26.53;;;11.77;;
2602;SDS011;1311;47.966;7.958;2024-01-15T03:29:34;24.00;;;11.07;;
2602;SDS011;1311;47.966;7.958;2024-01-15T03:32:03;26.60;;;11.77;;
2602;SDS011;1311;47.966;7.958;2024-01-15T03:34:29;27.43;;;11.93;;
2602;SDS011;1311;47.966;7.958;2024-01-15T03:36:56;25.53;;;11.53;;
2602;SDS011;1311;47.966;7.958;2024-01-15T03:39:24;24.00;;;12.90;;
2602;SDS011;1311;47.966;7.958;2024-01-15T03:41:50;20.43;;;10.80;;
2602;SDS011;1311;47.966;7.958;2024-01-15T03:44:17;27.43;;;11.60;;
2602;SDS011;1311;47.966;7.958;2024-01-15T03:46:44;30.57;;;11.87;;
2602;SDS011;1311;47.966;7.958;2024-01-15T03:49:12;27.20;;;12.00;;
2602;SDS011;1311;47.966;7.958;2024-01-15T03:51:39;28.27;;;12.30;;
2602;SDS011;1311;47.966;7.958;2024-01-15T03:54:05;25.27;;;11.23;;
2602;SDS011;1311;47.966;7.958;2024-01-15T03:56:32;22.83;;;10.97;;
2602;SDS011;1311;47.966;7.958;2024-01-15T03:58:59;25.17;;;10.93;;
2602;SDS011;1311;47.966;7.958;2024-01-15T04:01:25;26.30;;;11.10;;
2602;SDS011;1311;47.966;7.958;2024-01-15T04:03:52;25.93;;;12.80;;
2602;SDS011;1311;47.966;7.958;2024-01-15T04:06:20;27.93;;;12.07;;
2602;SDS011;1311;47.966;7.958;2024-01-15T04:08:47;25.33;;;12.37;;
2602;SDS011;1311;47.966;7.958;2024-01-15T04:11:14;26.87;;;12.43;;
2602;SDS011;1311;47.966;7.958;2024-01-15T04:13:40;26.03;;;11.77;;
2602;SDS011;1311;47.966;7.958;2024-01-15T04:16:07;26.23;;;11.97;;
2602;SDS011;1311;47.966;7.958;2024-01-15T04:18:34;26.53;;;11.77;;
2602;SDS011;1311;47.966;7.958;2024-01-15T04:21:00;23.20;;;11.00;;
2602;SDS011;1311;47.966;7.958;2024-01-15T04:23:31;27.63;;;12.60;;
2602;SDS011;1311;47.966;7.958;2024-01-15T04:25:57;28.37;;;13.27;;
2602;SDS011;1311;47.966;7.958;2024-01-15T04:28:24;29.90;;;11.90;;
2602;SDS011;1311;47.966;7.958;2024-01-15T04:30:51;36.07;;;12.83;;
2602;SDS011;1311;47.966;7.958;2024-01-15T04:33:17;24.90;;;10.37;;
2602;SDS011;1311;47.966;7.958;2024-01-15T04:35:44;25.23;;;11.43;;
2602;SDS011;1311;47.966;7.958;2024-01-15T04:38:11;24.73;;;11.90;;
2602;SDS011;1311;47.966;7.958;2024-01-15T04:40:39;28.63;;;14.03;;
2602;SDS011;1311;47.966;7.958;2024-01-15T04:43:06;29.20;;;11.80;;
2602;SDS011;1311;47.966;7.958;2024-01-15T04:45:32;29.33;;;11.50;;
2602;SDS011;1311;47.966;7.958;2024-01-15T04:47:59;28.00;;;12.00;;
2602;SDS011;1311;47.966;7.958;2024-01-15T04:50:26;25.77;;;11.97;;
2602;SDS011;1311;47.966;7.958;2024-01-15T04:52:53;28.00;;;11.90;;
2602;SDS011;1311;47.966;7.958;2024-01-15T04:55:19;28.90;;;12.03;;
2602;SDS011;1311;47.966;7.958;2024-01-15T04:57:47;28.87;;;12.10;;
2602;SDS011;1311;47.966;7.958;2024-01-15T05:00:14;24.33;;;11.70;;
2602;SDS011;1311;47.966;7.958;2024-01-15T05:02:41;33.73;;;12.50;;
2602;SDS011;1311;47.966;7.958;2024-01-15T05:05:08;31.17;;;13.73;;
2602;SDS011;1311;47.966;7.958;2024-01-15T05:07:35;23.97;;;11.77;;
2602;SDS011;1311;47.966;7.958;2024-01-15T05:10:01;27.53;;;12.97;;
2602;SDS011;1311;47.966;7.958;2024-01-15T05:12:29;26.17;;;11.93;;
2602;SDS011;1311;47.966;7.958;2024-01-15T05:14:57;32.00;;;11.67;;
2602;SDS011;1311;47.966;7.958;2024-01-15T05:17:23;30.23;;;12.70;;
2602;SDS011;1311;47.966;7.958;2024-01-15T05:19:50;29.67;;;11.83;;
2602;SDS011;1311;47.966;7.958;2024-01-15T05:22:17;32.40;;;12.07;;
2602;SDS011;1311;47.966;7.958;2024-01-15T05:24:43;31.47;;;14.10;;
2602;SDS011;1311;47.966;7.958;2024-01-15T05:27:10;26.27;;;12.00;;
2602;SDS011;1311;47.966;7.958;2024-01-15T05:29:37;30.53;;;12.23;;
2602;SDS011;1311;47.966;7.958;2024-01-15T05:32:05;31.13;;;12.17;;
2602;SDS011;1311;47.966;7.958;2024-01-15T05:34:32;22.97;;;11.43;;
2602;SDS011;1311;47.966;7.958;2024-01-15T05:36:57;26.70;;;11.77;;
2602;SDS011;1311;47.966;7.958;2024-01-15T05:39:24;27.17;;;11.03;;
2602;SDS011;1311;47.966;7.958;2024-01-15T05:41:51;29.63;;;13.10;;
2602;SDS011;1311;47.966;7.958;2024-01-15T05:44:18;35.63;;;14.10;;
2602;SDS011;1311;47.966;7.958;2024-01-15T05:46:44;30.60;;;12.17;;
2602;SDS011;1311;47.966;7.958;2024-01-15T05:49:12;29.80;;;12.40;;
2602;SDS011;1311;47.966;7.958;2024-01-15T05:51:39;27.80;;;13.23;;
2602;SDS011;1311;47.966;7.958;2024-01-15T05:54:06;35.93;;;14.43;;
2602;SDS011;1311;47.966;7.958;2024-01-15T05:56:32;26.17;;;12.90;;
2602;SDS011;1311;47.966;7.958;2024-01-15T05:58:59;31.57;;;12.77;;
2602;SDS011;1311;47.966;7.958;2024-01-15T06:01:26;33.37;;;13.07;;
2602;SDS011;1311;47.966;7.958;2024-01-15T06:03:53;24.73;;;12.53;;
2602;SDS011;1311;47.966;7.958;2024-01-15T06:06:21;25.70;;;12.43;;
2602;SDS011;1311;47.966;7.958;2024-01-15T06:08:48;33.70;;;13.40;;
2602;SDS011;1311;47.966;7.958;2024-01-15T06:11:14;29.53;;;13.40;;
2602;SDS011;1311;47.966;7.958;2024-01-15T06:13:41;26.67;;;12.70;;
2602;SDS011;1311;47.966;7.958;2024-01-15T06:16:12;27.20;;;12.73;;
2602;SDS011;1311;47.966;7.958;2024-01-15T06:18:40;29.53;;;14.57;;
2602;SDS011;1311;47.966;7.958;2024-01-15T06:21:07;30.57;;;13.70;;
2602;SDS011;1311;47.966;7.958;2024-01-15T06:23:36;29.20;;;13.50;;
2602;SDS011;1311;47.966;7.958;2024-01-15T06:26:03;30.70;;;14.80;;
2602;SDS011;1311;47.966;7.958;2024-01-15T06:28:30;34.57;;;14.10;;
2602;SDS011;1311;47.966;7.958;2024-01-15T06:30:57;32.37;;;15.20;;
2602;SDS011;1311;47.966;7.958;2024-01-15T06:33:24;32.93;;;13.40;;
2602;SDS011;1311;47.966;7.958;2024-01-15T06:35:50;26.27;;;12.27;;
2602;SDS011;1311;47.966;7.958;2024-01-15T06:38:17;24.97;;;12.40;;
2602;SDS011;1311;47.966;7.958;2024-01-15T06:40:45;26.40;;;12.23;;
2602;SDS011;1311;47.966;7.958;2024-01-15T06:43:13;30.97;;;13.93;;
2602;SDS011;1311;47.966;7.958;2024-01-15T06:45:40;37.90;;;15.97;;
2602;SDS011;1311;47.966;7.958;2024-01-15T06:48:07;33.00;;;19.53;;
2602;SDS011;1311;47.966;7.958;2024-01-15T06:50:34;36.57;;;17.67;;
2602;SDS011;1311;47.966;7.958;2024-01-15T06:53:01;27.73;;;13.60;;
2602;SDS011;1311;47.966;7.958;2024-01-15T06:55:27;34.53;;;14.43;;
2602;SDS011;1311;47.966;7.958;2024-01-15T06:57:55;36.63;;;15.20;;
2602;SDS011;1311;47.966;7.958;2024-01-15T07:00:22;29.97;;;12.90;;
2602;SDS011;1311;47.966;7.958;2024-01-15T07:02:49;29.90;;;12.40;;
2602;SDS011;1311;47.966;7.958;2024-01-15T07:05:16;29.73;;;12.57;;
2602;SDS011;1311;47.966;7.958;2024-01-15T07:07:43;25.97;;;11.77;;
2602;SDS011;1311;47.966;7.958;2024-01-15T07:10:10;32.53;;;12.67;;
2602;SDS011;1311;47.966;7.958;2024-01-15T07:12:37;29.20;;;12.10;;
2602;SDS011;1311;47.966;7.958;2024-01-15T07:15:05;30.10;;;13.03;;
2602;SDS011;1311;47.966;7.958;2024-01-15T07:17:33;32.50;;;14.10;;
2602;SDS011;1311;47.966;7.958;2024-01-15T07:20:00;27.43;;;12.93;;
2602;SDS011;1311;47.966;7.958;2024-01-15T07:22:27;24.00;;;11.67;;
2602;SDS011;1311;47.966;7.958;2024-01-15T07:24:54;27.63;;;13.47;;
2602;SDS011;1311;47.966;7.958;2024-01-15T07:27:21;28.87;;;13.30;;
2602;SDS011;1311;47.966;7.958;2024-01-15T07:29:48;31.33;;;15.07;;
2602;SDS011;1311;47.966;7.958;2024-01-15T07:32:16;27.03;;;11.57;;
2602;SDS011;1311;47.966;7.958;2024-01-15T07:34:42;30.67;;;11.93;;
2602;SDS011;1311;47.966;7.958;2024-01-15T07:37:09;27.13;;;12.80;;
2602;SDS011;1311;47.966;7.958;2024-01-15T07:39:36;28.27;;;10.93;;
2602;SDS011;1311;47.966;7.958;2024-01-15T07:42:03;24.80;;;11.20;;
2602;SDS011;1311;47.966;7.958;2024-01-15T07:44:30;20.63;;;9.77;;
2602;SDS011;1311;47.966;7.958;2024-01-15T07:46:57;22.67;;;8.27;;
2602;SDS011;1311;47.966;7.958;2024-01-15T07:49:25;19.47;;;8.97;;
2602;SDS011;1311;47.966;7.958;2024-01-15T07:51:52;23.63;;;10.87;;
2602;SDS011;1311;47.966;7.958;2024-01-15T07:54:18;23.70;;;11.20;;
2602;SDS011;1311;47.966;7.958;2024-01-15T07:56:55;21.63;;;10.80;;
2602;SDS011;1311;47.966;7.958;2024-01-15T07:59:22;21.20;;;11.70;;
2602;SDS011;1311;47.966;7.958;2024-01-15T08:01:49;21.00;;;8.97;;
2602;SDS011;1311;47.966;7.958;2024-01-15T08:04:16;20.83;;;9.97;;
2602;SDS011;1311;47.966;7.958;2024-01-15T08:06:44;18.17;;;9.60;;
2602;SDS011;1311;47.966;7.958;2024-01-15T08:09:11;25.80;;;10.83;;
2602;SDS011;1311;47.966;7.958;2024-01-15T08:11:39;25.80;;;11.20;;
2602;SDS011;1311;47.966;7.958;2024-01-15T08:14:06;16.10;;;8.37;;
2602;SDS011;1311;47.966;7.958;2024-01-15T08:16:33;18.90;;;9.17;;
2602;SDS011;1311;47.966;7.958;2024-01-15T08:19:00;19.67;;;9.93;;
2602;SDS011;1311;47.966;7.958;2024-01-15T08:21:26;24.63;;;10.73;;
2602;SDS011;1311;47.966;7.958;2024-01-15T08:23:56;23.30;;;12.07;;
2602;SDS011;1311;47.966;7.958;2024-01-15T08:26:23;25.30;;;12.80;;
2602;SDS011;1311;47.966;7.958;2024-01-15T08:28:50;21.10;;;11.17;;
2602;SDS011;1311;47.966;7.958;2024-01-15T08:31:16;21.03;;;10.23;;
2602;SDS011;1311;47.966;7.958;2024-01-15T08:33:43;24.63;;;9.50;;
2602;SDS011;1311;47.966;7.958;2024-01-15T08:36:10;21.57;;;10.20;;
2602;SDS011;1311;47.966;7.958;2024-01-15T08:38:37;15.73;;;7.60;;
2602;SDS011;1311;47.966;7.958;2024-01-15T08:41:05;19.50;;;9.00;;
2602;SDS011;1311;47.966;7.958;2024-01-15T08:43:33;16.00;;;7.93;;
2602;SDS011;1311;47.966;7.958;2024-01-15T08:46:00;15.60;;;7.97;;
2602;SDS011;1311;47.966;7.958;2024-01-15T08:48:27;15.30;;;7.50;;
2602;SDS011;1311;47.966;7.958;2024-01-15T08:50:53;16.47;;;8.60;;
2602;SDS011;1311;47.966;7.958;2024-01-15T08:53:21;15.27;;;9.10;;
2602;SDS011;1311;47.966;7.958;2024-01-15T08:55:48;17.53;;;9.10;;
2602;SDS011;1311;47.966;7.958;2024-01-15T08:58:17;17.60;;;8.53;;
2602;SDS011;1311;47.966;7.958;2024-01-15T09:00:43;13.40;;;6.90;;
2602;SDS011;1311;47.966;7.958;2024-01-15T09:03:10;13.80;;;7.30;;
2602;SDS011;1311;47.966;7.958;2024-01-15T09:05:37;12.60;;;6.87;;
2602;SDS011;1311;47.966;7.958;2024-01-15T09:08:05;11.50;;;6.63;;
2602;SDS011;1311;47.966;7.958;2024-01-15T09:10:32;14.17;;;7.07;;
2602;SDS011;1311;47.966;7.958;2024-01-15T09:12:59;11.43;;;6.77;;
2602;SDS011;1311;47.966;7.958;2024-01-15T09:15:27;11.80;;;6.33;;
2602;SDS011;1311;47.966;7.958;2024-01-15T09:17:54;11.10;;;6.53;;
2602;SDS011;1311;47.966;7.958;2024-01-15T09:20:22;14.40;;;6.60;;
2602;SDS011;1311;47.966;7.958;2024-01-15T09:22:49;12.87;;;6.50;;
2602;SDS011;1311;47.966;7.958;2024-01-15T09:25:16;11.97;;;7.10;;
2602;SDS011;1311;47.966;7.958;2024-01-15T09:27:42;14.80;;;7.13;;
2602;SDS011;1311;47.966;7.958;2024-01-15T09:30:09;20.00;;;6.13;;
2602;SDS011;1311;47.966;7.958;2024-01-15T09:32:38;12.13;;;7.37;;
2602;SDS011;1311;47.966;7.958;2024-01-15T09:35:05;13.23;;;6.53;;
2602;SDS011;1311;47.966;7.958;2024-01-15T09:37:32;10.23;;;5.73;;
2602;SDS011;1311;47.966;7.958;2024-01-15T09:39:59;11.73;;;5.70;;
2602;SDS011;1311;47.966;7.958;2024-01-15T09:42:26;8.23;;;5.20;;
2602;SDS011;1311;47.966;7.958;2024-01-15T09:44:54;11.80;;;5.90;;
2602;SDS011;1311;47.966;7.958;2024-01-15T09:47:21;12.53;;;6.13;;
2602;SDS011;1311;47.966;7.958;2024-01-15T09:49:51;7.90;;;4.40;;
2602;SDS011;1311;47.966;7.958;2024-01-15T09:52:17;6.20;;;3.73;;
2602;SDS011;1311;47.966;7.958;2024-01-15T09:54:45;11.17;;;5.87;;
2602;SDS011;1311;47.966;7.958;2024-01-15T09:57:13;4.60;;;2.73;;
2602;SDS011;1311;47.966;7.958;2024-01-15T09:59:39;5.50;;;2.70;;
2602;SDS011;1311;47.966;7.958;2024-01-15T10:02:08;6.63;;;3.00;;
2602;SDS011;1311;47.966;7.958;2024-01-15T10:04:39;2.33;;;2.00;;
2602;SDS011;1311;47.966;7.958;2024-01-15T10:07:08;3.77;;;1.57;;
2602;SDS011;1311;47.966;7.958;2024-01-15T10:09:35;5.43;;;2.87;;
2602;SDS011;1311;47.966;7.958;2024-01-15T10:12:02;2.90;;;1.10;;
2602;SDS011;1311;47.966;7.958;2024-01-15T10:14:29;2.10;;;1.20;;
2602;SDS011;1311;47.966;7.958;2024-01-15T10:16:57;2.17;;;1.30;;
2602;SDS011;1311;47.966;7.958;2024-01-15T10:19:24;2.10;;;1.47;;
2602;SDS011;1311;47.966;7.958;2024-01-15T10:21:51;1.20;;;1.10;;
2602;SDS011;1311;47.966;7.958;2024-01-15T10:24:19;3.03;;;1.70;;
2602;SDS011;1311;47.966;7.958;2024-01-15T10:26:45;1.17;;;1.07;;
2602;SDS011;1311;47.966;7.958;2024-01-15T10:29:12;2.00;;;1.47;;
2602;SDS011;1311;47.966;7.958;2024-01-15T10:31:41;1.57;;;1.20;;
2602;SDS011;1311;47.966;7.958;2024-01-15T10:34:11;2.97;;;1.40;;
2602;SDS011;1311;47.966;7.958;2024-01-15T10:36:38;3.13;;;2.30;;
2602;SDS011;1311;47.966;7.958;2024-01-15T10:39:06;2.03;;;1.30;;
2602;SDS011;1311;47.966;7.958;2024-01-15T10:41:35;2.87;;;1.33;;
2602;SDS011;1311;47.966;7.958;2024-01-15T10:44:01;1.90;;;1.40;;
2602;SDS011;1311;47.966;7.958;2024-01-15T10:46:28;2.40;;;1.70;;
2602;SDS011;1311;47.966;7.958;2024-01-15T10:48:56;3.50;;;1.70;;
2602;SDS011;1311;47.966;7.958;2024-01-15T10:51:23;3.13;;;2.03;;
2602;SDS011;1311;47.966;7.958;2024-01-15T10:53:51;1.97;;;1.60;;
2602;SDS011;1311;47.966;7.958;2024-01-15T10:56:19;3.00;;;2.17;;
2602;SDS011;1311;47.966;7.958;2024-01-15T10:58:50;4.83;;;2.50;;
2602;SDS011;1311;47.966;7.958;2024-01-15T11:01:17;4.73;;;3.30;;
2602;SDS011;1311;47.966;7.958;2024-01-15T11:03:44;7.53;;;3.47;;
2602;SDS011;1311;47.966;7.958;2024-01-15T11:06:18;5.33;;;3.00;;
2602;SDS011;1311;47.966;7.958;2024-01-15T11:08:46;5.40;;;3.00;;
2602;SDS011;1311;47.966;7.958;2024-01-15T11:11:15;6.80;;;3.63;;
2602;SDS011;1311;47.966;7.958;2024-01-15T11:13:42;6.00;;;3.87;;
2602;SDS011;1311;47.966;7.958;2024-01-15T11:16:11;6.77;;;3.77;;
2602;SDS011;1311;47.966;7.958;2024-01-15T11:18:40;6.40;;;3.70;;
2602;SDS011;1311;47.966;7.958;2024-01-15T11:21:20;6.83;;;4.07;;
2602;SDS011;1311;47.966;7.958;2024-01-15T11:23:48;7.83;;;4.00;;
2602;SDS011;1311;47.966;7.958;2024-01-15T11:32:00;9.63;;;4.47;;
2602;SDS011;1311;47.966;7.958;2024-01-15T11:37:27;7.63;;;4.13;;
2602;SDS011;1311;47.966;7.958;2024-01-15T11:39:55;7.50;;;4.23;;
2602;SDS011;1311;47.966;7.958;2024-01-15T11:42:25;7.30;;;3.87;;
2602;SDS011;1311;47.966;7.958;2024-01-15T11:44:52;6.77;;;3.80;;
2602;SDS011;1311;47.966;7.958;2024-01-15T11:47:37;6.57;;;4.10;;
2602;SDS011;1311;47.966;7.958;2024-01-15T11:50:29;7.17;;;3.80;;
2602;SDS011;1311;47.966;7.958;2024-01-15T11:52:59;6.90;;;3.63;;
2602;SDS011;1311;47.966;7.958;2024-01-15T11:55:27;7.10;;;5.10;;
2602;SDS011;1311;47.966;7.958;2024-01-15T11:57:57;10.47;;;5.70;;
2602;SDS011;1311;47.966;7.958;2024-01-15T12:00:26;8.53;;;4.87;;
2602;SDS011;1311;47.966;7.958;2024-01-15T12:02:55;9.33;;;4.50;;
2602;SDS011;1311;47.966;7.958;2024-01-15T12:05:27;9.10;;;5.17;;
2602;SDS011;1311;47.966;7.958;2024-01-15T12:07:53;9.53;;;5.43;;
2602;SDS011;1311;47.966;7.958;2024-01-15T12:10:20;8.40;;;5.70;;
2602;SDS011;1311;47.966;7.958;2024-01-15T12:12:53;7.43;;;4.70;;
2602;SDS011;1311;47.966;7.958;2024-01-15T12:15:23;10.10;;;5.13;;
2602;SDS011;1311;47.966;7.958;2024-01-15T12:17:50;10.07;;;5.50;;
2602;SDS011;1311;47.966;7.958;2024-01-15T12:20:19;8.90;;;5.17;;
2602;SDS011;1311;47.966;7.958;2024-01-15T12:22:46;6.33;;;3.93;;
2602;SDS011;1311;47.966;7.958;2024-01-15T12:25:12;13.00;;;5.50;;
2602;SDS011;1311;47.966;7.958;2024-01-15T12:27:39;6.23;;;4.07;;
2602;SDS011;1311;47.966;7.958;2024-01-15T12:30:06;7.67;;;4.10;;
2602;SDS011;1311;47.966;7.958;2024-01-15T12:32:36;7.60;;;4.13;;
2602;SDS011;1311;47.966;7.958;2024-01-15T12:35:03;6.43;;;4.10;;
2602;SDS011;1311;47.966;7.958;2024-01-15T12:37:32;4.97;;;3.40;;
2602;SDS011;1311;47.966;7.958;2024-01-15T12:39:58;4.20;;;2.90;;
2602;SDS011;1311;47.966;7.958;2024-01-15T12:42:27;4.63;;;3.43;;
2602;SDS011;1311;47.966;7.958;2024-01-15T12:44:56;7.80;;;3.80;;
2602;SDS011;1311;47.966;7.958;2024-01-15T12:47:23;4.13;;;3.20;;
2602;SDS011;1311;47.966;7.958;2024-01-15T12:49:51;5.87;;;3.63;;
2602;SDS011;1311;47.966;7.958;2024-01-15T12:52:19;8.03;;;4.23;;
2602;SDS011;1311;47.966;7.958;2024-01-15T12:54:48;5.53;;;3.30;;
2602;SDS011;1311;47.966;7.958;2024-01-15T12:57:15;7.27;;;4.27;;
2602;SDS011;1311;47.966;7.958;2024-01-15T12:59:42;6.40;;;3.63;;
2602;SDS011;1311;47.966;7.958;2024-01-15T13:02:10;5.73;;;3.53;;
2602;SDS011;1311;47.966;7.958;2024-01-15T13:04:39;6.87;;;3.80;;
2602;SDS011;1311;47.966;7.958;2024-01-15T13:07:08;6.30;;;3.60;;
2602;SDS011;1311;47.966;7.958;2024-01-15T13:09:35;4.37;;;3.10;;
2602;SDS011;1311;47.966;7.958;2024-01-15T13:12:04;5.50;;;3.80;;
2602;SDS011;1311;47.966;7.958;2024-01-15T13:14:31;6.30;;;3.20;;
2602;SDS011;1311;47.966;7.958;2024-01-15T13:16:58;5.33;;;3.60;;
2602;SDS011;1311;47.966;7.958;2024-01-15T13:19:25;4.27;;;2.80;;
2602;SDS011;1311;47.966;7.958;2024-01-15T13:21:52;5.50;;;3.83;;
2602;SDS011;1311;47.966;7.958;2024-01-15T13:24:19;5.67;;;3.87;;
2602;SDS011;1311;47.966;7.958;2024-01-15T13:26:46;7.57;;;3.73;;
2602;SDS011;1311;47.966;7.958;2024-01-15T13:29:14;6.50;;;3.20;;
2602;SDS011;1311;47.966;7.958;2024-01-15T13:31:41;6.13;;;3.77;;
2602;SDS011;1311;47.966;7.958;2024-01-15T13:34:12;4.37;;;3.30;;
2602;SDS011;1311;47.966;7.958;2024-01-15T13:36:40;5.60;;;3.50;;
2602;SDS011;1311;47.966;7.958;2024-01-15T13:39:08;7.20;;;3.70;;
2602;SDS011;1311;47.966;7.958;2024-01-15T13:41:35;8.03;;;4.43;;
2602;SDS011;1311;47.966;7.958;2024-01-15T13:44:02;6.30;;;3.70;;
2602;SDS011;1311;47.966;7.958;2024-01-15T13:46:31;6.90;;;4.20;;
2602;SDS011;1311;47.966;7.958;2024-01-15T13:48:58;7.40;;;4.23;;
2602;SDS011;1311;47.966;7.958;2024-01-15T13:51:27;7.23;;;4.53;;
2602;SDS011;1311;47.966;7.958;2024-01-15T13:53:55;6.67;;;3.97;;
2602;SDS011;1311;47.966;7.958;2024-01-15T13:56:22;7.77;;;5.40;;
2602;SDS011;1311;47.966;7.958;2024-01-15T13:58:49;16.63;;;5.23;;
2602;SDS011;1311;47.966;7.958;2024-01-15T14:01:17;11.97;;;6.00;;
2602;SDS011;1311;47.966;7.958;2024-01-15T14:03:59;10.03;;;5.10;;
2602;SDS011;1311;47.966;7.958;2024-01-15T14:06:29;11.67;;;6.17;;
2602;SDS011;1311;47.966;7.958;2024-01-15T14:08:56;10.13;;;5.53;;
2602;SDS011;1311;47.966;7.958;2024-01-15T14:11:23;10.87;;;5.90;;
2602;SDS011;1311;47.966;7.958;2024-01-15T14:13:50;10.37;;;6.10;;
2602;SDS011;1311;47.966;7.958;2024-01-15T14:16:17;10.90;;;5.60;;
2602;SDS011;1311;47.966;7.958;2024-01-15T14:18:44;6.40;;;3.67;;
2602;SDS011;1311;47.966;7.958;2024-01-15T14:21:12;9.10;;;4.70;;
2602;SDS011;1311;47.966;7.958;2024-01-15T14:23:39;7.23;;;4.20;;
2602;SDS011;1311;47.966;7.958;2024-01-15T14:26:06;6.60;;;4.60;;
2602;SDS011;1311;47.966;7.958;2024-01-15T14:28:33;7.90;;;3.83;;
2602;SDS011;1311;47.966;7.958;2024-01-15T14:31:00;7.53;;;4.00;;
2602;SDS011;1311;47.966;7.958;2024-01-15T14:33:27;7.70;;;4.13;;
2602;SDS011;1311;47.966;7.958;2024-01-15T14:35:54;5.67;;;3.27;;
2602;SDS011;1311;47.966;7.958;2024-01-15T14:38:23;5.53;;;3.73;;
2602;SDS011;1311;47.966;7.958;2024-01-15T14:40:49;8.77;;;3.63;;
2602;SDS011;1311;47.966;7.958;2024-01-15T14:43:16;6.20;;;3.83;;
2602;SDS011;1311;47.966;7.958;2024-01-15T14:45:43;6.07;;;4.00;;
2602;SDS011;1311;47.966;7.958;2024-01-15T14:48:11;4.47;;;2.93;;
2602;SDS011;1311;47.966;7.958;2024-01-15T14:50:38;7.57;;;3.93;;
2602;SDS011;1311;47.966;7.958;2024-01-15T14:53:05;4.70;;;3.57;;
2602;SDS011;1311;47.966;7.958;2024-01-15T14:55:34;7.33;;;3.90;;
2602;SDS011;1311;47.966;7.958;2024-01-15T14:58:01;5.43;;;3.50;;
2602;SDS011;1311;47.966;7.958;2024-01-15T15:00:28;6.70;;;3.87;;
2602;SDS011;1311;47.966;7.958;2024-01-15T15:02:55;7.47;;;4.07;;
2602;SDS011;1311;47.966;7.958;2024-01-15T15:05:21;5.93;;;3.83;;
2602;SDS011;1311;47.966;7.958;2024-01-15T15:07:48;9.87;;;3.70;;